Time;durP1;ratioP1;P1;durP2;ratioP2;P2;SDS_P1;SDS_P2;PMS_P1;PMS_P2;Temp;Humidity;BMP_temperature;BMP_pressure;BME280_temperature;BME280_humidity;BME280_pressure;Samples;Min_cycle;Max_cycle;Signal;HPM_P1;HPM_P2
2024/01/21 00:01:29;;;;;;;;;0.00;0.00;;;;;1.13;100.00;102149.25;6374917;22;45275;-90
2024/01/21 00:03:55;;;;;;;;;0.00;0.00;;;;;1.12;100.00;102124.41;6375143;22;45265;-92
2024/01/21 00:06:22;;;;;;;;;0.00;0.00;;;;;1.04;100.00;102117.28;6348167;22;47045;-91
2024/01/21 00:08:47;;;;;;;;;0.00;0.00;;;;;1.00;100.00;102102.63;6403340;22;45325;-90
2024/01/21 00:11:13;;;;;;;;;0.00;0.00;;;;;0.98;100.00;102107.72;6348002;22;52904;-90
2024/01/21 00:13:38;;;;;;;;;4.50;4.50;;;;;0.99;100.00;102113.72;6402690;22;45228;-90
2024/01/21 00:16:03;;;;;;;;;0.67;0.67;;;;;0.96;100.00;102114.47;6348194;22;49316;-90
2024/01/21 00:18:29;;;;;;;;;0.00;0.00;;;;;1.00;100.00;102118.03;6375604;22;45344;-90
2024/01/21 00:20:54;;;;;;;;;0.00;0.00;;;;;0.95;100.00;102110.19;6375178;22;45379;-90
2024/01/21 00:23:20;;;;;;;;;3.00;3.00;;;;;1.01;100.00;102122.34;6348514;22;45319;-90
2024/01/21 00:25:45;;;;;;;;;0.00;0.00;;;;;1.03;100.00;102121.56;6348349;22;46908;-90
2024/01/21 00:28:10;;;;;;;;;0.00;0.00;;;;;0.99;100.00;102112.03;6348086;22;57444;-90
2024/01/21 00:30:39;;;;;;;;;0.00;0.00;;;;;1.08;100.00;102122.59;6347114;22;60140;-90
2024/01/21 00:33:04;;;;;;;;;0.00;0.00;;;;;1.00;100.00;102108.63;6403242;22;45145;-90
2024/01/21 00:35:30;;;;;;;;;0.00;0.00;;;;;1.03;100.00;102119.00;6374856;22;46847;-90
2024/01/21 00:37:55;;;;;;;;;0.00;0.00;;;;;1.04;100.00;102119.84;6374655;22;45296;-90
2024/01/21 00:40:23;;;;;;;;;0.00;0.00;;;;;1.09;100.00;102115.75;6374910;22;45341;-90
2024/01/21 00:42:49;;;;;;;;;0.00;0.00;;;;;1.10;100.00;102123.50;6348654;22;45395;-90
2024/01/21 00:45:14;;;;;;;;;0.00;0.00;;;;;1.14;100.00;102114.22;6346870;22;64290;-90
2024/01/21 00:47:43;;;;;;;;;0.00;0.00;;;;;1.09;100.00;102105.50;6374886;22;45312;-90
2024/01/21 00:50:08;;;;;;;;;0.00;0.00;;;;;1.13;100.00;102100.53;6348514;22;45189;-90
2024/01/21 00:52:34;;;;;;;;;0.00;0.00;;;;;1.09;100.00;102101.22;6374748;22;45406;-90
2024/01/21 00:55:02;;;;;;;;;0.00;0.00;;;;;1.10;100.00;102113.25;6374075;22;65282;-90
2024/01/21 00:57:28;;;;;;;;;0.00;0.00;;;;;1.11;100.00;102126.94;6348073;22;45403;-90
2024/01/21 00:59:53;;;;;;;;;0.00;0.00;;;;;1.08;100.00;102120.03;6347623;22;45696;-90
2024/01/21 01:02:22;;;;;;;;;1.00;1.00;;;;;1.05;100.00;102124.19;6347617;22;56738;-91
2024/01/21 01:04:48;;;;;;;;;0.00;0.00;;;;;1.02;100.00;102127.50;6402635;22;46531;-90
2024/01/21 01:07:14;;;;;;;;;36.00;36.00;;;;;1.05;100.00;102132.72;6374650;22;45330;-90
2024/01/21 01:09:40;;;;;;;;;1.00;1.00;;;;;0.99;100.00;102129.13;6402908;22;45357;-90
2024/01/21 01:12:08;;;;;;;;;0.00;0.00;;;;;0.99;100.00;102135.09;6375050;22;45420;-91
2024/01/21 01:14:34;;;;;;;;;0.00;0.00;;;;;0.96;100.00;102124.75;6347406;22;48712;-91
2024/01/21 01:17:02;;;;;;;;;0.00;0.00;;;;;0.88;100.00;102119.34;6374732;22;45406;-89
2024/01/21 01:19:28;;;;;;;;;0.00;0.00;;;;;0.89;100.00;102110.88;6373258;22;45353;-90
2024/01/21 01:21:53;;;;;;;;;0.00;0.00;;;;;0.94;100.00;102118.69;6347620;22;48069;-89
2024/01/21 01:24:19;;;;;;;;;0.00;0.00;;;;;0.85;100.00;102103.88;6374736;22;46077;-90
2024/01/21 01:26:48;;;;;;;;;0.00;0.00;;;;;0.89;100.00;102109.97;6374897;22;45284;-90
2024/01/21 01:29:13;;;;;;;;;0.50;0.00;;;;;0.92;100.00;102128.88;6373588;22;57503;-90
2024/01/21 01:31:38;;;;;;;;;0.00;0.00;;;;;0.92;100.00;102134.03;6347644;22;49957;-90
2024/01/21 01:34:04;;;;;;;;;0.00;0.00;;;;;0.93;100.00;102122.97;6374030;22;48020;-90
2024/01/21 01:36:29;;;;;;;;;0.00;0.00;;;;;0.96;100.00;102122.19;6347955;22;51305;-90
2024/01/21 01:38:57;;;;;;;;;0.00;0.00;;;;;0.96;100.00;102104.22;6347704;22;54409;-91
2024/01/21 01:41:23;;;;;;;;;0.00;0.00;;;;;1.01;100.00;102114.66;6347095;22;64958;-90
2024/01/21 01:43:48;;;;;;;;;0.00;0.00;;;;;0.99;100.00;102116.28;6347701;22;48314;-90
2024/01/21 01:46:14;;;;;;;;;0.00;0.00;;;;;1.04;100.00;102127.53;6347857;22;45657;-90
2024/01/21 01:48:40;;;;;;;;;4.50;4.50;;;;;1.04;100.00;102123.31;6374971;22;45344;-90
2024/01/21 01:51:05;;;;;;;;;0.00;0.00;;;;;1.07;100.00;102125.09;6374720;22;45258;-90
2024/01/21 01:53:33;;;;;;;;;0.00;0.00;;;;;1.13;100.00;102132.97;6374069;22;56537;-90
2024/01/21 01:55:59;;;;;;;;;0.00;0.00;;;;;1.17;100.00;102139.97;6401716;22;46083;-90
2024/01/21 01:58:28;;;;;;;;;0.00;0.00;;;;;1.16;100.00;102136.50;6374418;22;45226;-90
2024/01/21 02:00:54;;;;;;;;;0.00;0.00;;;;;1.29;100.00;102157.44;6374628;22;45103;-90
2024/01/21 02:03:23;;;;;;;;;0.00;0.00;;;;;1.25;100.00;102147.91;6374607;22;46388;-90
2024/01/21 02:05:48;;;;;;;;;0.00;0.00;;;;;1.23;100.00;102150.41;6374677;22;45316;-89
2024/01/21 02:08:14;;;;;;;;;0.00;0.00;;;;;1.24;100.00;102152.16;6374842;22;45288;-89
2024/01/21 02:10:39;;;;;;;;;0.00;0.00;;;;;1.33;100.00;102149.88;6347986;22;45498;-90
2024/01/21 02:13:04;;;;;;;;;0.00;0.00;;;;;1.28;100.00;102130.03;6345597;22;61526;-90
2024/01/21 02:15:32;;;;;;;;;0.00;0.00;;;;;1.40;100.00;102135.56;6374073;22;45154;-90
2024/01/21 02:17:58;;;;;;;;;0.00;0.00;;;;;1.38;100.00;102114.13;6374387;22;45244;-89
2024/01/21 02:20:23;;;;;;;;;0.00;0.00;;;;;1.40;100.00;102125.28;6374049;22;45613;-89
2024/01/21 02:22:48;;;;;;;;;0.00;0.00;;;;;1.45;100.00;102131.44;6373474;22;57526;-89
2024/01/21 02:25:14;;;;;;;;;0.00;0.00;;;;;1.44;100.00;102116.84;6347512;22;45186;-90
2024/01/21 02:27:42;;;;;;;;;0.00;0.00;;;;;1.50;100.00;102136.69;6399580;22;63993;-90
2024/01/21 02:30:08;;;;;;;;;0.00;0.00;;;;;1.51;100.00;102129.06;6401159;22;45265;-89
2024/01/21 02:32:33;;;;;;;;;0.00;0.00;;;;;1.53;100.00;102131.69;6347664;22;47574;-90
2024/01/21 02:34:59;;;;;;;;;0.00;0.00;;;;;1.48;100.00;102117.81;6373535;22;45303;-89
2024/01/21 02:37:24;;;;;;;;;0.00;0.00;;;;;1.57;100.00;102128.38;6402219;22;50693;-90
2024/01/21 02:39:49;;;;;;;;;0.00;0.00;;;;;1.54;100.00;102120.56;6346581;22;61619;-89
2024/01/21 02:42:15;;;;;;;;;0.00;0.00;;;;;1.59;100.00;102120.72;6346651;22;61483;-90
2024/01/21 02:44:40;;;;;;;;;0.00;0.00;;;;;1.57;100.00;102122.38;6374143;22;45148;-90
2024/01/21 02:47:09;;;;;;;;;0.00;0.00;;;;;1.54;100.00;102115.44;6373633;22;50973;-90
2024/01/21 02:49:34;;;;;;;;;0.00;0.00;;;;;1.60;100.00;102115.63;6373236;22;55430;-89
2024/01/21 02:51:59;;;;;;;;;0.00;0.00;;;;;1.61;100.00;102101.97;6373534;22;47151;-90
2024/01/21 02:54:30;;;;;;;;;0.00;0.00;;;;;1.65;100.00;102101.22;6374217;22;45392;-89
2024/01/21 02:56:56;;;;;;;;;0.00;0.00;;;;;1.60;100.00;102089.97;6347655;22;45341;-89
2024/01/21 02:59:24;;;;;;;;;0.00;0.00;;;;;1.59;100.00;102084.78;6373518;22;52519;-89
2024/01/21 03:01:49;;;;;;;;;0.00;0.00;;;;;1.52;100.00;102066.66;6346973;22;47115;-89
2024/01/21 03:04:14;;;;;;;;;3.00;3.00;;;;;1.65;100.00;102077.25;6373125;22;61205;-89
2024/01/21 03:06:41;;;;;;;;;0.00;0.00;;;;;1.65;100.00;102069.56;6373382;22;54809;-89
2024/01/21 03:09:06;;;;;;;;;0.00;0.00;;;;;1.72;100.00;102058.66;6402252;22;45195;-89
2024/01/21 03:11:32;;;;;;;;;0.00;0.00;;;;;1.71;100.00;102060.34;6377249;22;68791;-89
2024/01/21 03:13:58;;;;;;;;;0.00;0.00;;;;;1.72;100.00;102048.38;6355854;22;45699;-89
2024/01/21 03:16:24;;;;;;;;;0.75;0.75;;;;;1.69;100.00;102058.53;6356381;22;45384;-89
2024/01/21 03:18:49;;;;;;;;;0.00;0.00;;;;;1.67;100.00;102062.78;6412228;22;45333;-89
2024/01/21 03:21:17;;;;;;;;;0.00;0.00;;;;;1.70;100.00;102053.47;6376003;22;46962;-88
2024/01/21 03:23:46;;;;;;;;;0.00;0.00;;;;;1.76;100.00;102067.31;6347516;22;57930;-89
2024/01/21 03:26:11;;;;;;;;;0.00;0.00;;;;;1.73;100.00;102086.06;6373316;22;50334;-89
2024/01/21 03:28:36;;;;;;;;;0.00;0.00;;;;;1.79;100.00;102099.06;6373831;22;45404;-89
2024/01/21 03:31:02;;;;;;;;;0.00;0.00;;;;;1.76;100.00;102098.97;6372951;22;74090;-90
2024/01/21 03:33:27;;;;;;;;;0.00;0.00;;;;;1.80;100.00;102112.78;6346579;22;53078;-88
2024/01/21 03:35:53;;;;;;;;;0.00;0.00;;;;;1.86;100.00;102120.69;6374252;22;45276;-89
2024/01/21 03:38:18;;;;;;;;;0.00;0.00;;;;;1.87;100.00;102107.84;6374219;22;45216;-89
2024/01/21 03:40:43;;;;;;;;;0.00;0.00;;;;;1.98;100.00;102125.28;6345961;22;65855;-89
2024/01/21 03:43:09;;;;;;;;;0.00;0.00;;;;;1.99;100.00;102119.31;6346190;22;53824;-89
2024/01/21 03:45:34;;;;;;;;;0.00;0.00;;;;;1.95;100.00;102118.38;6347267;22;45528;-89
2024/01/21 03:48:03;;;;;;;;;0.00;0.00;;;;;1.96;100.00;102116.66;6346916;22;45403;-89
2024/01/21 03:50:28;;;;;;;;;0.00;0.00;;;;;1.99;100.00;102124.44;6373411;22;48146;-89
2024/01/21 03:52:53;;;;;;;;;0.00;0.00;;;;;1.97;100.00;102127.00;6400742;22;58377;-88
2024/01/21 03:55:20;;;;;;;;;0.00;0.00;;;;;2.01;100.00;102123.69;6400504;22;51447;-89
2024/01/21 03:57:45;;;;;;;;;0.00;0.00;;;;;2.04;100.00;102130.59;6346253;22;45412;-89
2024/01/21 04:00:12;;;;;;;;;0.00;0.00;;;;;2.02;100.00;102127.97;6345740;22;70896;-89
2024/01/21 04:02:37;;;;;;;;;0.00;0.00;;;;;2.12;100.00;102119.72;6401299;22;45271;-89
2024/01/21 04:05:06;;;;;;;;;0.00;0.00;;;;;2.16;100.00;102117.25;6346641;22;45381;-90
2024/01/21 04:07:32;;;;;;;;;0.00;0.00;;;;;2.19;100.00;102119.88;6399979;22;45400;-89
2024/01/21 04:09:58;;;;;;;;;0.00;0.00;;;;;2.09;100.00;102093.06;6372718;22;46989;-90
2024/01/21 04:12:24;;;;;;;;;0.00;0.00;;;;;2.21;100.00;102092.53;6351357;22;45227;-89
2024/01/21 04:14:49;;;;;;;;;0.00;0.00;;;;;2.21;100.00;102078.00;6412899;22;45155;-90
2024/01/21 04:17:15;;;;;;;;;0.00;0.00;;;;;2.30;100.00;102085.97;6382988;22;48440;-89
2024/01/21 04:19:45;;;;;;;;;0.00;0.00;;;;;2.28;100.00;102064.47;6377404;22;45603;-88
2024/01/21 04:22:11;;;;;;;;;0.00;0.00;;;;;2.37;100.00;102080.97;6401121;22;45200;-89
2024/01/21 04:24:39;;;;;;;;;0.00;0.00;;;;;2.31;100.00;102059.41;6347021;22;45298;-89
2024/01/21 04:27:05;;;;;;;;;0.00;0.00;;;;;2.41;100.00;102072.50;6346798;22;45384;-89
2024/01/21 04:29:30;;;;;;;;;0.00;0.00;;;;;2.38;100.00;102046.72;6346214;22;47072;-89
2024/01/21 04:31:56;;;;;;;;;0.00;0.00;;;;;2.35;100.00;102028.66;6401021;22;45405;-89
2024/01/21 04:34:22;;;;;;;;;0.00;0.00;;;;;2.44;100.00;102059.75;6373552;22;45331;-89
2024/01/21 04:36:48;;;;;;;;;0.00;0.00;;;;;2.43;100.00;102052.84;6373763;22;54017;-89
2024/01/21 04:39:17;;;;;;;;;1.00;0.00;;;;;2.41;100.00;102041.66;6402816;22;45977;-89
2024/01/21 04:41:42;;;;;;;;;0.00;0.00;;;;;2.52;100.00;102056.53;6374562;22;45201;-89
2024/01/21 04:44:11;;;;;;;;;0.00;0.00;;;;;2.49;100.00;102061.59;6403069;22;45194;-90
2024/01/21 04:46:39;;;;;;;;;0.00;0.00;;;;;2.51;100.00;102048.78;6375040;22;45798;-89
2024/01/21 04:49:04;;;;;;;;;0.00;0.00;;;;;2.57;100.00;102050.66;6347003;22;66540;-89
2024/01/21 04:51:30;;;;;;;;;0.67;0.67;;;;;2.54;100.00;102064.28;6346683;22;64457;-89
2024/01/21 04:53:59;;;;;;;;;0.00;0.00;;;;;2.59;100.00;102048.97;6348124;22;45261;-89
2024/01/21 04:56:24;;;;;;;;;0.00;0.00;;;;;2.60;100.00;102045.56;6374410;22;45247;-88
2024/01/21 04:58:50;;;;;;;;;0.00;0.00;;;;;2.65;100.00;102056.84;6347667;22;47167;-89
2024/01/21 05:01:16;;;;;;;;;1.00;1.00;;;;;2.63;100.00;102038.78;6374176;22;45389;-89
2024/01/21 05:03:41;;;;;;;;;0.00;0.00;;;;;2.66;100.00;102045.72;6402338;22;45328;-90
2024/01/21 05:06:06;;;;;;;;;0.00;0.00;;;;;2.68;100.00;102056.91;6346272;22;70220;-89
2024/01/21 05:08:34;;;;;;;;;0.00;0.00;;;;;2.72;100.00;102048.44;6346717;22;69485;-89
2024/01/21 05:11:00;;;;;;;;;0.00;0.00;;;;;2.82;100.00;102044.38;6347869;22;45304;-89
2024/01/21 05:13:25;;;;;;;;;0.00;0.00;;;;;2.83;100.00;102036.72;6346240;22;67679;-89
2024/01/21 05:15:50;;;;;;;;;0.00;0.00;;;;;2.81;100.00;102033.25;6374095;22;48394;-89
2024/01/21 05:18:20;;;;;;;;;0.00;0.00;;;;;2.63;100.00;102028.50;6401692;22;50792;-88
2024/01/21 05:20:45;;;;;;;;;0.00;0.00;;;;;2.47;100.00;102013.53;6374048;22;45271;-88
2024/01/21 05:23:11;;;;;;;;;0.50;0.50;;;;;2.47;100.00;102032.41;6374335;22;45290;-88
2024/01/21 05:25:39;;;;;;;;;0.00;0.00;;;;;2.34;100.00;102004.69;6374063;22;45508;-89
2024/01/21 05:28:05;;;;;;;;;0.00;0.00;;;;;2.33;100.00;101998.66;6346554;22;66462;-89
2024/01/21 05:30:33;;;;;;;;;0.00;0.00;;;;;2.35;100.00;102011.53;6374465;22;46216;-89
2024/01/21 05:32:58;;;;;;;;;0.00;0.00;;;;;2.30;100.00;101982.28;6346795;22;58094;-88
2024/01/21 05:35:24;;;;;;;;;0.00;0.00;;;;;2.24;100.00;101971.88;6373453;22;54459;-88
2024/01/21 05:37:49;;;;;;;;;0.00;0.00;;;;;2.30;100.00;101996.03;6346445;22;70596;-88
2024/01/21 05:40:15;;;;;;;;;0.00;0.00;;;;;2.32;100.00;102003.75;6347362;22;45544;-89
2024/01/21 05:42:40;;;;;;;;;0.00;0.00;;;;;2.34;100.00;102020.09;6374542;22;45409;-89
2024/01/21 05:45:09;;;;;;;;;0.00;0.00;;;;;2.30;100.00;102000.28;6374693;22;45312;-89
2024/01/21 05:47:38;;;;;;;;;0.00;0.00;;;;;2.37;100.00;102003.88;6402158;22;47264;-89
2024/01/21 05:50:03;;;;;;;;;0.00;0.00;;;;;2.37;100.00;101985.88;6373580;22;45288;-89
2024/01/21 05:52:29;;;;;;;;;0.00;0.00;;;;;2.39;100.00;101971.38;6347372;22;45309;-88
2024/01/21 05:54:57;;;;;;;;;0.33;0.00;;;;;2.38;100.00;101970.50;6401634;22;48756;-89
2024/01/21 05:57:22;;;;;;;;;0.00;0.00;;;;;2.41;100.00;101992.84;6346577;22;63966;-89
2024/01/21 05:59:48;;;;;;;;;0.00;0.00;;;;;2.42;100.00;102026.28;6373452;22;60928;-89
2024/01/21 06:02:18;;;;;;;;;0.00;0.00;;;;;2.46;100.00;101994.69;6347660;22;45270;-89
2024/01/21 06:04:43;;;;;;;;;0.00;0.00;;;;;2.43;100.00;101992.03;6375435;22;45217;-90
2024/01/21 06:07:08;;;;;;;;;0.00;0.00;;;;;2.49;100.00;102002.47;6353045;22;52281;-89
2024/01/21 06:09:34;;;;;;;;;0.00;0.00;;;;;2.52;100.00;102017.97;6379278;22;45299;-89
2024/01/21 06:11:59;;;;;;;;;0.00;0.00;;;;;2.54;100.00;102007.72;6374734;22;45178;-90
2024/01/21 06:14:29;;;;;;;;;0.00;0.00;;;;;2.61;100.00;102013.91;6342987;22;45430;-89
2024/01/21 06:16:54;;;;;;;;;94.00;81.25;;;;;2.66;100.00;102038.03;6315845;22;47191;-89
2024/01/21 06:19:19;;;;;;;;;0.00;0.00;;;;;2.66;100.00;102025.16;6315719;22;45310;-89
2024/01/21 06:21:45;;;;;;;;;0.00;0.00;;;;;2.70;100.00;102007.25;6368217;22;58901;-89
2024/01/21 06:24:14;;;;;;;;;0.00;0.00;;;;;2.82;100.00;102001.56;6342355;22;45371;-89
2024/01/21 06:26:40;;;;;;;;;0.00;0.00;;;;;2.83;100.00;101994.72;6342254;22;46868;-89
2024/01/21 06:29:06;;;;;;;;;0.00;0.00;;;;;2.88;100.00;101995.69;6342363;22;45453;-89
2024/01/21 06:31:32;;;;;;;;;0.00;0.00;;;;;2.88;100.00;101991.41;6370178;22;45359;-89
2024/01/21 06:33:57;;;;;;;;;0.00;0.00;;;;;2.97;100.00;101984.72;6341010;22;61182;-89
2024/01/21 06:36:22;;;;;;;;;0.00;0.00;;;;;3.04;100.00;101989.16;6369135;22;59659;-89
2024/01/21 06:38:48;;;;;;;;;0.00;0.00;;;;;2.98;100.00;101995.03;6315631;22;45295;-89
2024/01/21 06:41:17;;;;;;;;;0.00;0.00;;;;;3.07;100.00;102004.69;6370139;22;45488;-89
2024/01/21 06:43:42;;;;;;;;;0.00;0.00;;;;;3.10;100.00;101997.91;6368751;22;45214;-89
2024/01/21 06:46:11;;;;;;;;;0.00;0.00;;;;;3.05;100.00;101996.94;6369955;22;46091;-88
2024/01/21 06:48:36;;;;;;;;;0.00;0.00;;;;;3.09;100.00;102011.59;6341047;22;48700;-89
2024/01/21 06:51:10;;;;;;;;;0.00;0.00;;;;;3.13;100.00;102016.81;6369649;22;45457;-89
2024/01/21 06:53:36;;;;;;;;;0.00;0.00;;;;;3.17;100.00;102019.47;6341916;22;45325;-89
2024/01/21 06:56:06;;;;;;;;;0.00;0.00;;;;;3.19;100.00;102042.66;6341775;22;47983;-88
2024/01/21 06:58:32;;;;;;;;;0.00;0.00;;;;;3.18;100.00;102026.38;6342791;22;45696;-89
2024/01/21 07:00:58;;;;;;;;;0.00;0.00;;;;;3.26;100.00;102041.97;6368821;22;45241;-89
2024/01/21 07:03:27;;;;;;;;;0.00;0.00;;;;;3.26;100.00;102042.84;6341841;22;45258;-89
2024/01/21 07:05:52;;;;;;;;;0.00;0.00;;;;;3.29;100.00;102057.50;6315733;22;46865;-89
2024/01/21 07:08:21;;;;;;;;;0.00;0.00;;;;;3.37;100.00;102083.41;6340827;22;58445;-89
2024/01/21 07:10:46;;;;;;;;;0.00;0.00;;;;;3.38;100.00;102082.53;6341736;22;45241;-89
2024/01/21 07:13:11;;;;;;;;;0.00;0.00;;;;;3.37;100.00;102091.97;6341565;22;45127;-90
2024/01/21 07:15:37;;;;;;;;;0.00;0.00;;;;;3.32;100.00;102074.69;6341016;22;64982;-88
2024/01/21 07:18:07;;;;;;;;;0.00;0.00;;;;;3.39;100.00;102089.44;6367520;22;45258;-89
2024/01/21 07:20:32;;;;;;;;;0.00;0.00;;;;;3.37;100.00;102066.25;6342039;22;45409;-89
2024/01/21 07:22:58;;;;;;;;;0.75;0.75;;;;;3.46;100.00;102091.31;6369987;22;45331;-89
2024/01/21 07:25:23;;;;;;;;;0.00;0.00;;;;;3.41;100.00;102091.22;6368346;22;45396;-88
2024/01/21 07:27:51;;;;;;;;;0.00;0.00;;;;;3.47;100.00;102095.63;6367462;22;57979;-88
2024/01/21 07:30:17;;;;;;;;;0.00;0.00;;;;;3.52;100.00;102098.31;6314828;22;59738;-89
2024/01/21 07:32:42;;;;;;;;;0.25;0.25;;;;;3.48;100.00;102075.06;6367881;22;45177;-89
2024/01/21 07:35:11;;;;;;;;;0.00;0.00;;;;;3.54;100.00;102079.47;6341561;22;48221;-89
2024/01/21 07:37:37;;;;;;;;;0.00;0.00;;;;;3.58;100.00;102072.69;6314965;22;56562;-89
2024/01/21 07:40:03;;;;;;;;;0.00;0.00;;;;;3.62;100.00;102098.56;6315399;22;45530;-89
2024/01/21 07:42:29;;;;;;;;;0.00;0.00;;;;;3.59;100.00;102102.75;6341369;22;45619;-89
2024/01/21 07:44:54;;;;;;;;;0.00;0.00;;;;;3.49;100.00;102097.41;6369806;22;46525;-90
2024/01/21 07:47:19;;;;;;;;;2.00;2.00;;;;;3.53;100.00;102118.06;6314335;22;61883;-89
2024/01/21 07:49:46;;;;;;;;;0.00;0.00;;;;;3.58;100.00;102126.75;6368739;22;45386;-89
2024/01/21 07:52:12;;;;;;;;;0.00;0.00;;;;;3.57;100.00;102133.63;6342230;22;45270;-89
2024/01/21 07:54:37;;;;;;;;;0.00;0.00;;;;;3.57;100.00;102130.19;6315321;22;46862;-89
2024/01/21 07:57:03;;;;;;;;;0.00;0.00;;;;;3.65;100.00;102146.66;6340916;22;61837;-89
2024/01/21 07:59:28;;;;;;;;;0.00;0.00;;;;;3.58;100.00;102140.50;6367591;22;45173;-88
2024/01/21 08:01:53;;;;;;;;;0.00;0.00;;;;;3.67;100.00;102143.28;6341086;22;60693;-89
2024/01/21 08:04:19;;;;;;;;;0.00;0.00;;;;;3.67;100.00;102143.28;6340898;22;62174;-89
2024/01/21 08:06:44;;;;;;;;;0.00;0.00;;;;;3.68;100.00;102132.16;6365529;22;45364;-89
2024/01/21 08:09:09;;;;;;;;;0.00;0.00;;;;;3.74;100.00;102143.44;6341458;22;46222;-89
2024/01/21 08:11:35;;;;;;;;;0.00;0.00;;;;;3.74;100.00;102134.00;6368859;22;45297;-89
2024/01/21 08:14:00;;;;;;;;;0.00;0.00;;;;;3.71;100.00;102133.91;6316205;22;47213;-90
2024/01/21 08:16:25;;;;;;;;;0.00;0.00;;;;;3.76;100.00;102131.47;6316345;22;45559;-90
2024/01/21 08:18:51;;;;;;;;;0.00;0.00;;;;;3.78;100.00;102143.53;6315590;22;61371;-89
2024/01/21 08:21:16;;;;;;;;;0.00;0.00;;;;;3.82;100.00;102137.59;6341726;22;62139;-89
2024/01/21 08:23:44;;;;;;;;;0.00;0.00;;;;;3.80;100.00;102140.97;6368952;22;46794;-89
2024/01/21 08:26:10;;;;;;;;;0.00;0.00;;;;;3.91;100.00;102152.38;6315663;22;57933;-89
2024/01/21 08:28:38;;;;;;;;;0.00;0.00;;;;;3.97;100.00;102173.09;6342587;22;45277;-89
2024/01/21 08:31:03;;;;;;;;;2.25;2.25;;;;;3.89;100.00;102164.34;6368677;22;45197;-89
2024/01/21 08:33:29;;;;;;;;;0.00;0.00;;;;;3.92;100.00;102184.16;6342608;22;47016;-89
2024/01/21 08:35:54;;;;;;;;;0.00;0.00;;;;;4.03;100.00;102216.16;6368670;22;45272;-89
2024/01/21 08:38:20;;;;;;;;;0.00;0.00;;;;;4.01;100.00;102216.16;6368184;22;61880;-89
2024/01/21 08:40:45;;;;;;;;;0.00;0.00;;;;;4.00;100.00;102213.56;6370563;22;45538;-89
2024/01/21 08:43:10;;;;;;;;;0.00;0.00;;;;;3.98;100.00;102226.41;6341879;22;67129;-89
2024/01/21 08:45:35;;;;;;;;;0.00;0.00;;;;;4.03;100.00;102231.63;6368372;22;64936;-88
2024/01/21 08:48:04;;;;;;;;;0.00;0.00;;;;;4.04;100.00;102236.81;6369371;22;45356;-88
2024/01/21 08:50:33;;;;;;;;;0.00;0.00;;;;;4.06;100.00;102240.31;6316178;22;45353;-89
2024/01/21 08:52:59;;;;;;;;;0.00;0.00;;;;;4.08;100.00;102236.06;6341193;22;69702;-89
2024/01/21 08:55:25;;;;;;;;;0.00;0.00;;;;;4.14;100.00;102231.88;6368922;22;45653;-89
2024/01/21 08:57:50;;;;;;;;;0.00;0.00;;;;;4.06;100.00;102214.53;6342605;22;45500;-90
2024/01/21 09:00:16;;;;;;;;;0.00;0.00;;;;;4.15;100.00;102213.88;6368294;22;60041;-89
2024/01/21 09:02:41;;;;;;;;;0.00;0.00;;;;;4.20;100.00;102232.03;6368979;22;48085;-88
2024/01/21 09:05:10;;;;;;;;;0.00;0.00;;;;;4.20;100.00;102217.41;6342439;22;45764;-89
2024/01/21 09:07:35;;;;;;;;;0.00;0.00;;;;;4.23;100.00;102212.34;6316647;22;45411;-88
2024/01/21 09:10:03;;;;;;;;;0.00;0.00;;;;;4.33;100.00;102215.09;6342729;22;45201;-89
2024/01/21 09:12:29;;;;;;;;;0.00;0.00;;;;;4.34;100.00;102214.25;6316265;22;47111;-89
2024/01/21 09:14:54;;;;;;;;;0.00;0.00;;;;;4.38;100.00;102210.91;6342712;22;45286;-89
2024/01/21 09:17:20;;;;;;;;;0.00;0.00;;;;;4.45;100.00;102220.50;6369344;22;45740;-89
2024/01/21 09:19:48;;;;;;;;;0.00;0.00;;;;;4.51;100.00;102228.34;6341767;22;67169;-89
2024/01/21 09:22:17;;;;;;;;;0.00;0.00;;;;;4.56;100.00;102233.63;6348296;22;64442;-89
2024/01/21 09:24:42;;;;;;;;;0.00;0.00;;;;;4.59;100.00;102224.22;6360347;22;50328;-88
2024/01/21 09:27:08;;;;;;;;;0.00;0.00;;;;;4.72;100.00;102235.66;6386375;22;49580;-89
2024/01/21 09:29:33;;;;;;;;;0.00;0.00;;;;;4.79;100.00;102213.41;6353732;22;45233;-88
2024/01/21 09:31:58;;;;;;;;;0.00;0.00;;;;;4.90;100.00;102211.03;6345417;22;65848;-89
2024/01/21 09:34:24;;;;;;;;;10.00;10.00;;;;;4.93;100.00;102186.16;6346550;22;62107;-88
2024/01/21 09:36:53;;;;;;;;;0.00;0.00;;;;;4.99;100.00;102194.00;6374765;22;45146;-89
2024/01/21 09:39:18;;;;;;;;;0.00;0.00;;;;;5.05;100.00;102195.81;6317188;22;45306;-89
2024/01/21 09:41:51;;;;;;;;;0.00;0.00;;;;;5.19;100.00;102212.41;6369693;22;47371;-89
2024/01/21 09:44:27;;;;;;;;;0.00;0.00;;;;;5.31;100.00;102226.38;6342714;22;45283;-89
2024/01/21 09:46:55;;;;;;;;;0.00;0.00;;;;;5.35;100.00;102217.81;6344127;22;45463;-89
2024/01/21 09:49:21;;;;;;;;;0.00;0.00;;;;;5.36;100.00;102217.00;6370557;22;45184;-89
2024/01/21 09:51:48;;;;;;;;;0.00;0.00;;;;;5.32;100.00;102220.38;6369814;22;46999;-88
2024/01/21 09:54:13;;;;;;;;;0.00;0.00;;;;;5.32;100.00;102216.06;6368564;22;45182;-88
2024/01/21 09:56:46;;;;;;;;;0.00;0.00;;;;;5.34;100.00;102234.16;6342216;22;45314;-89
2024/01/21 09:59:12;;;;;;;;;0.00;0.00;;;;;5.33;100.00;102225.56;6342405;22;45209;-89
2024/01/21 10:01:42;;;;;;;;;0.00;0.00;;;;;5.31;100.00;102211.75;6342522;22;47006;-88
2024/01/21 10:04:09;;;;;;;;;3.00;3.00;;;;;5.39;100.00;102242.88;6341847;22;45388;-88
2024/01/21 10:06:37;;;;;;;;;0.00;0.00;;;;;5.46;100.00;102257.63;6343081;22;45269;-88
2024/01/21 10:09:21;;;;;;;;;0.00;0.00;;;;;5.48;100.00;102261.09;6368742;22;45335;-89
2024/01/21 10:12:00;;;;;;;;;0.00;0.00;;;;;5.48;100.00;102262.78;6305459;22;47371;-89
2024/01/21 10:14:31;;;;;;;;;0.00;0.00;;;;;5.46;100.00;102251.56;6307064;22;45448;-89
2024/01/21 10:17:00;;;;;;;;;0.00;0.00;;;;;5.51;100.00;102257.69;6304907;22;45232;-88
2024/01/21 10:19:35;;;;;;;;;0.00;0.00;;;;;5.46;100.00;102251.56;6307017;22;45207;-88
2024/01/21 10:22:14;;;;;;;;;36.00;36.00;;;;;5.42;100.00;102235.16;6276368;22;48393;-88
2024/01/21 10:24:49;;;;;;;;;0.00;0.00;;;;;5.45;100.00;102231.78;6279007;22;45381;-88
2024/01/21 10:27:15;;;;;;;;;0.00;0.00;;;;;5.47;100.00;102217.16;6279664;22;45369;-88
2024/01/21 10:29:45;;;;;;;;;0.00;0.00;;;;;5.54;100.00;102216.41;6305952;22;45358;-88
2024/01/21 10:32:15;;;;;;;;;0.00;0.00;;;;;5.56;100.00;102213.00;6306078;22;48058;-87
2024/01/21 10:34:42;;;;;;;;;7.75;7.75;;;;;5.59;100.00;102199.25;6304649;22;45289;-87
2024/01/21 10:37:08;;;;;;;;;0.00;0.00;;;;;5.66;100.00;102189.91;6331355;22;45397;-87
2024/01/21 10:39:39;;;;;;;;;6.00;6.00;;;;;5.72;100.00;102190.88;6278638;22;45337;-88
2024/01/21 10:42:05;;;;;;;;;0.00;0.00;;;;;5.78;100.00;102178.03;6306009;22;45353;-88
2024/01/21 10:44:35;;;;;;;;;0.00;0.00;;;;;5.89;100.00;102182.44;6305299;22;45910;-88
2024/01/21 10:47:02;;;;;;;;;0.00;0.00;;;;;5.90;100.00;102166.97;6331586;22;45304;-87
2024/01/21 10:49:32;;;;;;;;;0.00;0.00;;;;;5.96;100.00;102174.88;6305719;22;45277;-88
2024/01/21 10:51:58;;;;;;;;;0.00;0.00;;;;;5.97;100.00;102161.06;6279635;22;48155;-89
2024/01/21 10:54:25;;;;;;;;;1.00;1.00;;;;;5.97;100.00;102157.63;6331454;22;45595;-88
2024/01/21 10:56:53;;;;;;;;;0.00;0.00;;;;;5.96;100.00;102153.28;6307122;22;45330;-88
2024/01/21 10:59:19;;;;;;;;;0.00;0.00;;;;;6.06;100.00;102159.47;6279661;22;47715;-88
2024/01/21 11:01:49;;;;;;;;;0.00;0.00;;;;;6.18;100.00;102164.78;6279744;22;47111;-88
2024/01/21 11:04:14;;;;;;;;;0.00;0.00;;;;;6.31;100.00;102174.41;6305662;22;49905;-88
2024/01/21 11:06:42;;;;;;;;;0.00;0.00;;;;;6.39;100.00;102166.75;6281016;22;45176;-88
2024/01/21 11:09:11;;;;;;;;;0.00;0.00;;;;;6.50;100.00;102164.28;6307380;22;45325;-88
2024/01/21 11:11:41;;;;;;;;;0.00;0.00;;;;;6.55;100.00;102166.06;6313081;22;46334;-89
2024/01/21 11:14:36;;;;;;;;;0.00;0.00;;;;;6.64;100.00;102174.78;6343154;22;45781;-89
2024/01/21 11:17:06;;;;;;;;;0.50;0.50;;;;;6.59;100.00;102159.19;6351753;22;45458;-88
2024/01/21 11:19:39;;;;;;;;;0.00;0.00;;;;;6.70;100.00;102169.66;6355859;22;45325;-87
2024/01/21 11:22:04;;;;;;;;;0.00;0.00;;;;;6.78;100.00;102175.81;6382785;22;45583;-88